Time;durP1;ratioP1;P1;durP2;ratioP2;P2;SDS_P1;SDS_P2;PMS_P1;PMS_P2;Temp;Humidity;BMP_temperature;BMP_pressure;BME280_temperature;BME280_humidity;BME280_pressure;Samples;Min_cycle;Max_cycle;Signal;HPM_P1;HPM_P2
2024/03/09 00:01:39;;;;;;;13.57;7.80;;;;;;;;;;4980657;28;20180;-88
2024/03/09 00:04:43;;;;;;;11.93;7.10;;;;;;;;;;4958255;29;20184;-88
2024/03/09 00:07:48;;;;;;;11.13;7.33;;;;;;;;;;4968917;28;20191;-88
2024/03/09 00:10:52;;;;;;;12.70;7.30;;;;;;;;;;4968947;28;20219;-89
2024/03/09 00:13:56;;;;;;;10.57;7.00;;;;;;;;;;4968923;28;20192;-89
2024/03/09 00:17:01;;;;;;;11.27;6.87;;;;;;;;;;4959538;29;20175;-88
2024/03/09 00:20:08;;;;;;;12.77;7.43;;;;;;;;;;4958151;29;20223;-89
2024/03/09 00:23:13;;;;;;;11.73;7.07;;;;;;;;;;4958357;29;20184;-88
2024/03/09 00:26:17;;;;;;;11.97;7.17;;;;;;;;;;4969229;28;20187;-88
2024/03/09 00:29:21;;;;;;;11.10;7.43;;;;;;;;;;4958622;29;20219;-88
2024/03/09 00:32:25;;;;;;;12.43;7.37;;;;;;;;;;4957843;28;20188;-89
2024/03/09 00:35:30;;;;;;;9.70;6.83;;;;;;;;;;4969553;28;20207;-89
2024/03/09 00:38:34;;;;;;;11.03;7.40;;;;;;;;;;4979773;28;20579;-88
2024/03/09 00:41:42;;;;;;;10.10;6.70;;;;;;;;;;4969291;28;20624;-88
2024/03/09 00:44:46;;;;;;;12.80;7.40;;;;;;;;;;4958025;29;20184;-89
2024/03/09 00:47:51;;;;;;;8.37;6.40;;;;;;;;;;4969129;28;20525;-88
2024/03/09 00:50:55;;;;;;;10.97;6.87;;;;;;;;;;4957670;29;20234;-88
2024/03/09 00:54:00;;;;;;;12.47;6.77;;;;;;;;;;4969456;28;20180;-88
2024/03/09 00:57:04;;;;;;;14.10;7.03;;;;;;;;;;4969011;28;20657;-88
2024/03/09 01:00:15;;;;;;;11.57;7.50;;;;;;;;;;4958871;29;20223;-89
2024/03/09 01:03:19;;;;;;;12.13;7.30;;;;;;;;;;4968928;28;20556;-89
2024/03/09 01:06:31;;;;;;;10.10;6.90;;;;;;;;;;4960761;29;20536;-90
2024/03/09 01:09:38;;;;;;;10.40;7.13;;;;;;;;;;4980521;28;20615;-90
2024/03/09 01:12:43;;;;;;;13.37;7.13;;;;;;;;;;4947033;29;20563;-89
2024/03/09 01:15:47;;;;;;;11.77;7.03;;;;;;;;;;4958018;29;20953;-88
2024/03/09 01:18:51;;;;;;;16.27;7.33;;;;;;;;;;4980500;28;20563;-87
2024/03/09 01:22:04;;;;;;;17.63;10.23;;;;;;;;;;4980159;28;20551;-88
2024/03/09 01:25:09;;;;;;;10.73;7.10;;;;;;;;;;4957900;29;20180;-87
2024/03/09 01:28:13;;;;;;;12.40;7.40;;;;;;;;;;4968513;28;20560;-87
2024/03/09 01:31:18;;;;;;;11.17;7.13;;;;;;;;;;4979747;28;20878;-88
2024/03/09 01:34:22;;;;;;;12.20;7.67;;;;;;;;;;4957473;29;20564;-88
2024/03/09 01:37:26;;;;;;;11.67;7.03;;;;;;;;;;4981354;28;20544;-89
2024/03/09 01:40:31;;;;;;;11.07;7.10;;;;;;;;;;4956827;29;20223;-89
2024/03/09 01:43:35;;;;;;;10.33;6.50;;;;;;;;;;4978496;28;20560;-89
2024/03/09 01:46:41;;;;;;;9.20;6.43;;;;;;;;;;4956384;29;20552;-89
2024/03/09 01:49:48;;;;;;;12.97;7.43;;;;;;;;;;4967239;28;20597;-89
2024/03/09 01:52:53;;;;;;;10.40;6.50;;;;;;;;;;4956949;29;20555;-89
2024/03/09 01:55:59;;;;;;;10.57;6.73;;;;;;;;;;4956664;29;20639;-89
2024/03/09 01:59:07;;;;;;;9.17;6.70;;;;;;;;;;4956371;29;20631;-89
2024/03/09 02:02:11;;;;;;;11.57;7.43;;;;;;;;;;4978661;28;20551;-89
2024/03/09 02:05:16;;;;;;;10.93;6.60;;;;;;;;;;4956609;29;21081;-90
2024/03/09 02:08:21;;;;;;;13.40;7.40;;;;;;;;;;4945356;29;20548;-89
2024/03/09 02:11:30;;;;;;;15.03;7.20;;;;;;;;;;4956209;29;20540;-89
2024/03/09 02:14:36;;;;;;;10.40;6.70;;;;;;;;;;4966982;28;20544;-89
2024/03/09 02:17:41;;;;;;;10.80;6.43;;;;;;;;;;4978167;28;20528;-89
2024/03/09 02:20:50;;;;;;;13.33;6.90;;;;;;;;;;4967339;28;20969;-89
2024/03/09 02:24:04;;;;;;;11.90;7.27;;;;;;;;;;4966789;28;21077;-89
2024/03/09 02:27:09;;;;;;;11.10;6.90;;;;;;;;;;4956825;29;20536;-89
2024/03/09 02:30:14;;;;;;;10.57;7.07;;;;;;;;;;4966710;28;21196;-89
2024/03/09 02:33:18;;;;;;;11.10;7.30;;;;;;;;;;4966751;28;20547;-89
2024/03/09 02:36:33;;;;;;;11.17;6.97;;;;;;;;;;4956425;29;20591;-89
2024/03/09 02:39:37;;;;;;;10.53;6.50;;;;;;;;;;4955837;29;20619;-89
2024/03/09 02:43:03;;;;;;;12.07;6.90;;;;;;;;;;4955683;29;20547;-89
2024/03/09 02:50:55;;;;;;;9.33;6.47;;;;;;;;;;4957170;28;21170;-90
2024/03/09 02:54:00;;;;;;;12.70;7.70;;;;;;;;;;4977566;28;20543;-89
2024/03/09 02:57:07;;;;;;;10.67;7.00;;;;;;;;;;4969384;28;20599;-89
2024/03/09 03:00:12;;;;;;;10.57;7.20;;;;;;;;;;4970571;28;20631;-89
2024/03/09 03:06:39;;;;;;;14.40;7.53;;;;;;;;;;4960310;29;20531;-89
2024/03/09 03:09:49;;;;;;;10.23;6.90;;;;;;;;;;4970063;28;21180;-89
2024/03/09 03:12:52;;;;;;;11.30;7.37;;;;;;;;;;4981530;28;21088;-89
2024/03/09 03:15:56;;;;;;;12.07;7.80;;;;;;;;;;4959580;29;20595;-89
2024/03/09 03:19:06;;;;;;;11.73;7.67;;;;;;;;;;4970044;28;20543;-89
2024/03/09 03:22:10;;;;;;;10.93;6.97;;;;;;;;;;4981148;28;20536;-89
2024/03/09 03:25:15;;;;;;;12.17;7.50;;;;;;;;;;4970037;28;20555;-89
2024/03/09 03:28:19;;;;;;;10.17;6.77;;;;;;;;;;4959048;29;20540;-89
2024/03/09 03:31:24;;;;;;;10.43;6.87;;;;;;;;;;4959016;29;20543;-89
2024/03/09 03:34:31;;;;;;;12.13;7.07;;;;;;;;;;4969798;28;20551;-89
2024/03/09 03:37:35;;;;;;;15.37;7.07;;;;;;;;;;4969704;28;20587;-89
2024/03/09 03:40:39;;;;;;;13.47;7.67;;;;;;;;;;4969634;28;20626;-89
2024/03/09 03:43:45;;;;;;;12.57;6.97;;;;;;;;;;4958642;29;20555;-89
2024/03/09 03:46:49;;;;;;;11.23;6.90;;;;;;;;;;4959991;29;20551;-89
2024/03/09 03:49:53;;;;;;;10.23;6.60;;;;;;;;;;4975546;28;20650;-89
2024/03/09 03:52:58;;;;;;;12.17;7.30;;;;;;;;;;4974691;28;20544;-90
2024/03/09 03:56:02;;;;;;;11.83;7.17;;;;;;;;;;4974572;28;20926;-90
2024/03/09 03:59:06;;;;;;;14.53;8.43;;;;;;;;;;4974817;28;20628;-90
2024/03/09 04:02:11;;;;;;;14.73;7.70;;;;;;;;;;4985359;28;20543;-90
2024/03/09 04:05:15;;;;;;;12.93;7.83;;;;;;;;;;4973888;28;20547;-90
2024/03/09 04:08:19;;;;;;;12.10;8.00;;;;;;;;;;4984992;28;20531;-90
2024/03/09 04:11:31;;;;;;;13.33;7.47;;;;;;;;;;4974648;28;20539;-90
2024/03/09 04:14:35;;;;;;;14.77;8.70;;;;;;;;;;4974614;28;20544;-90
2024/03/09 04:17:40;;;;;;;12.40;8.30;;;;;;;;;;4962789;29;20595;-90
2024/03/09 04:20:44;;;;;;;11.17;7.30;;;;;;;;;;4962568;29;20623;-90
2024/03/09 04:23:49;;;;;;;12.93;8.37;;;;;;;;;;4962933;29;20539;-90
2024/03/09 04:26:53;;;;;;;11.27;7.00;;;;;;;;;;4973661;28;20543;-90
2024/03/09 04:29:58;;;;;;;10.63;7.27;;;;;;;;;;4972786;28;20641;-90
2024/03/09 04:33:04;;;;;;;12.03;7.47;;;;;;;;;;4975528;28;20547;-90
2024/03/09 04:36:11;;;;;;;10.70;7.27;;;;;;;;;;4977364;28;20591;-90
2024/03/09 04:39:18;;;;;;;12.43;7.43;;;;;;;;;;4966936;29;20627;-90
2024/03/09 04:42:24;;;;;;;11.47;7.30;;;;;;;;;;4965819;29;20552;-90
2024/03/09 04:45:30;;;;;;;11.77;7.37;;;;;;;;;;4977441;28;20548;-90
2024/03/09 04:48:34;;;;;;;12.40;7.10;;;;;;;;;;4989824;28;20544;-90
2024/03/09 04:51:39;;;;;;;10.93;6.70;;;;;;;;;;4979653;28;20539;-90
2024/03/09 04:54:43;;;;;;;12.27;7.47;;;;;;;;;;4979076;28;21100;-90
2024/03/09 04:57:48;;;;;;;11.83;7.10;;;;;;;;;;4988792;28;20977;-90
2024/03/09 05:00:52;;;;;;;9.83;6.70;;;;;;;;;;4988753;28;20926;-90
2024/03/09 05:03:58;;;;;;;10.53;7.10;;;;;;;;;;4967628;29;20548;-90
2024/03/09 05:07:05;;;;;;;10.97;6.83;;;;;;;;;;4977067;28;20574;-90
2024/03/09 05:10:11;;;;;;;10.20;6.77;;;;;;;;;;4976811;28;20627;-90
2024/03/09 05:13:15;;;;;;;10.87;6.87;;;;;;;;;;4965090;29;20539;-90
2024/03/09 05:16:19;;;;;;;10.33;6.90;;;;;;;;;;4965026;29;20622;-90
2024/03/09 05:19:23;;;;;;;12.93;7.50;;;;;;;;;;4986954;28;20627;-90
2024/03/09 05:22:28;;;;;;;11.67;7.70;;;;;;;;;;4975730;28;20544;-90
2024/03/09 05:25:32;;;;;;;12.03;7.33;;;;;;;;;;4964983;28;20543;-90
2024/03/09 05:28:37;;;;;;;11.60;7.40;;;;;;;;;;4964876;29;20543;-90
2024/03/09 05:31:41;;;;;;;12.13;7.63;;;;;;;;;;4965134;28;20547;-90
2024/03/09 05:34:45;;;;;;;12.53;7.03;;;;;;;;;;4975763;28;20543;-90
2024/03/09 05:37:49;;;;;;;14.20;7.00;;;;;;;;;;4963678;29;20636;-90
2024/03/09 05:40:54;;;;;;;11.50;6.90;;;;;;;;;;4974714;28;20623;-90
2024/03/09 05:43:58;;;;;;;17.50;7.40;;;;;;;;;;4963398;29;20552;-90
2024/03/09 05:47:03;;;;;;;11.70;7.57;;;;;;;;;;4985289;28;20555;-90
2024/03/09 05:50:07;;;;;;;15.13;7.87;;;;;;;;;;4963006;29;20642;-90
2024/03/09 05:53:12;;;;;;;11.97;6.63;;;;;;;;;;4963719;29;21064;-90
2024/03/09 05:56:17;;;;;;;10.30;7.07;;;;;;;;;;4974278;28;20599;-90
2024/03/09 05:59:20;;;;;;;13.13;7.03;;;;;;;;;;4951793;29;20618;-90
2024/03/09 06:02:24;;;;;;;14.00;7.47;;;;;;;;;;4973719;28;20544;-90
2024/03/09 06:05:30;;;;;;;10.90;6.77;;;;;;;;;;4984858;28;20543;-90
2024/03/09 06:08:36;;;;;;;12.00;7.40;;;;;;;;;;4973161;28;20583;-90
2024/03/09 06:11:41;;;;;;;9.80;6.57;;;;;;;;;;4974118;28;20543;-90
2024/03/09 06:14:47;;;;;;;12.13;7.33;;;;;;;;;;4971990;28;20656;-90
2024/03/09 06:17:58;;;;;;;11.53;7.07;;;;;;;;;;4984035;28;20599;-88
2024/03/09 06:21:03;;;;;;;31.90;13.90;;;;;;;;;;4972456;28;20614;-86
2024/03/09 06:24:07;;;;;;;35.17;16.60;;;;;;;;;;4972320;28;20544;-89
2024/03/09 06:27:13;;;;;;;33.03;13.60;;;;;;;;;;4959797;29;20886;-89
2024/03/09 06:30:17;;;;;;;30.20;15.13;;;;;;;;;;4959164;28;20623;-90
2024/03/09 06:33:22;;;;;;;33.57;14.70;;;;;;;;;;4981975;28;20540;-90
2024/03/09 06:36:26;;;;;;;17.47;10.33;;;;;;;;;;4959710;29;20187;-90
2024/03/09 06:39:32;;;;;;;12.13;7.43;;;;;;;;;;4959444;29;20635;-91
2024/03/09 06:42:36;;;;;;;13.63;9.07;;;;;;;;;;4947050;29;20183;-90
2024/03/09 06:45:42;;;;;;;14.13;8.30;;;;;;;;;;4980512;28;20571;-90
2024/03/09 06:48:48;;;;;;;14.30;9.47;;;;;;;;;;4980766;28;20550;-90
2024/03/09 06:51:52;;;;;;;12.50;8.63;;;;;;;;;;4958433;29;20539;-91
2024/03/09 06:54:57;;;;;;;18.53;12.43;;;;;;;;;;4957609;29;20175;-90
2024/03/09 06:58:01;;;;;;;17.50;10.63;;;;;;;;;;4969252;28;20208;-91
2024/03/09 07:01:05;;;;;;;17.77;10.03;;;;;;;;;;4980103;28;20227;-90
2024/03/09 07:04:10;;;;;;;15.20;8.50;;;;;;;;;;4958240;29;20537;-90
2024/03/09 07:07:14;;;;;;;13.13;8.70;;;;;;;;;;4968374;28;20625;-90
2024/03/09 07:10:19;;;;;;;14.23;8.80;;;;;;;;;;4968337;28;20219;-90
2024/03/09 07:13:24;;;;;;;14.27;9.60;;;;;;;;;;4968355;28;20187;-89
2024/03/09 07:16:29;;;;;;;16.67;10.80;;;;;;;;;;4968756;28;20191;-90
2024/03/09 07:19:33;;;;;;;18.50;10.60;;;;;;;;;;4956951;29;20227;-86
2024/03/09 07:22:41;;;;;;;13.77;9.13;;;;;;;;;;4968638;28;20187;-88
2024/03/09 07:25:46;;;;;;;15.93;8.43;;;;;;;;;;4957411;29;20180;-89
2024/03/09 07:28:50;;;;;;;12.93;7.53;;;;;;;;;;4957588;29;20184;-89
2024/03/09 07:31:54;;;;;;;10.57;7.20;;;;;;;;;;4957186;29;20188;-89
2024/03/09 07:34:58;;;;;;;10.20;7.10;;;;;;;;;;4968666;28;20530;-89
2024/03/09 07:38:04;;;;;;;9.57;7.13;;;;;;;;;;4958188;29;20215;-89
2024/03/09 07:41:08;;;;;;;9.20;6.53;;;;;;;;;;4969061;28;20208;-89
2024/03/09 07:44:12;;;;;;;10.23;6.87;;;;;;;;;;4983038;28;20183;-88
2024/03/09 07:47:18;;;;;;;9.60;7.10;;;;;;;;;;4973645;28;20184;-89
2024/03/09 07:50:22;;;;;;;10.80;7.43;;;;;;;;;;4972224;28;20230;-86
2024/03/09 07:53:26;;;;;;;11.87;7.40;;;;;;;;;;4971329;28;20183;-87
2024/03/09 07:56:30;;;;;;;10.93;7.27;;;;;;;;;;4971042;28;20664;-88
2024/03/09 07:59:35;;;;;;;11.30;7.63;;;;;;;;;;4960318;29;20219;-89
2024/03/09 08:02:39;;;;;;;11.27;7.67;;;;;;;;;;4959633;29;20176;-89
2024/03/09 08:05:43;;;;;;;9.63;7.07;;;;;;;;;;4971281;28;20179;-90
2024/03/09 08:08:48;;;;;;;10.67;7.20;;;;;;;;;;4959651;29;20187;-90
2024/03/09 08:11:52;;;;;;;9.23;6.20;;;;;;;;;;4961066;29;20183;-90
2024/03/09 08:14:56;;;;;;;9.60;6.83;;;;;;;;;;4970748;28;20180;-91
2024/03/09 08:18:01;;;;;;;13.27;6.83;;;;;;;;;;4981392;28;20203;-91
2024/03/09 08:21:05;;;;;;;9.30;6.77;;;;;;;;;;4970509;28;20215;-91
2024/03/09 08:29:44;;;;;;;10.83;7.33;;;;;;;;;;4943727;29;20212;-92
2024/03/09 08:33:06;;;;;;;10.53;6.87;;;;;;;;;;4960281;28;20208;-90
2024/03/09 08:36:12;;;;;;;10.10;6.93;;;;;;;;;;4969936;28;20188;-90
2024/03/09 08:39:18;;;;;;;9.73;7.20;;;;;;;;;;4958581;29;20696;-90
2024/03/09 08:42:22;;;;;;;11.13;7.47;;;;;;;;;;4980939;28;20183;-89
2024/03/09 08:45:28;;;;;;;10.67;7.77;;;;;;;;;;4959272;29;20184;-90
2024/03/09 08:48:33;;;;;;;10.57;7.70;;;;;;;;;;4970046;28;20176;-88
2024/03/09 08:51:38;;;;;;;10.30;6.97;;;;;;;;;;4959668;29;20629;-85
2024/03/09 08:54:44;;;;;;;11.03;7.37;;;;;;;;;;4957772;28;20188;-91
2024/03/09 08:57:51;;;;;;;10.73;7.57;;;;;;;;;;4958020;29;20204;-89
2024/03/09 09:00:56;;;;;;;12.70;7.63;;;;;;;;;;4980173;28;20215;-89
2024/03/09 09:04:04;;;;;;;10.30;7.10;;;;;;;;;;4969253;28;20653;-87
2024/03/09 09:07:08;;;;;;;12.30;7.53;;;;;;;;;;4980032;28;20175;-86
2024/03/09 09:10:14;;;;;;;9.60;6.87;;;;;;;;;;4958285;29;20219;-88
2024/03/09 09:13:18;;;;;;;9.83;7.00;;;;;;;;;;4969125;28;20179;-87
2024/03/09 09:16:22;;;;;;;11.33;7.17;;;;;;;;;;4959031;29;20183;-83
2024/03/09 09:19:27;;;;;;;11.03;7.40;;;;;;;;;;4983170;28;20211;-85
2024/03/09 09:22:31;;;;;;;9.93;7.67;;;;;;;;;;4962336;29;20191;-83
2024/03/09 09:25:38;;;;;;;10.93;8.23;;;;;;;;;;4975375;28;20188;-83
2024/03/09 09:28:42;;;;;;;10.97;7.37;;;;;;;;;;4974863;28;20180;-83
2024/03/09 09:31:47;;;;;;;12.90;7.50;;;;;;;;;;4973491;28;20179;-83
2024/03/09 09:34:51;;;;;;;11.77;7.73;;;;;;;;;;4962193;29;20187;-84
2024/03/09 09:37:59;;;;;;;12.93;6.97;;;;;;;;;;4981983;28;20215;-84
2024/03/09 09:41:05;;;;;;;8.80;6.93;;;;;;;;;;4959900;29;20222;-84
2024/03/09 09:44:11;;;;;;;9.47;7.20;;;;;;;;;;4970524;28;20187;-84
2024/03/09 09:47:16;;;;;;;11.60;7.07;;;;;;;;;;4970880;28;20641;-84
2024/03/09 09:50:21;;;;;;;9.90;6.97;;;;;;;;;;4981848;28;20223;-84
2024/03/09 09:53:28;;;;;;;9.23;6.97;;;;;;;;;;4968753;28;20180;-84
2024/03/09 09:56:32;;;;;;;9.00;6.87;;;;;;;;;;4979192;28;20179;-84
2024/03/09 09:59:36;;;;;;;10.03;7.67;;;;;;;;;;4979352;28;20215;-85
2024/03/09 10:02:41;;;;;;;9.20;7.20;;;;;;;;;;4968155;28;20187;-84
2024/03/09 10:05:45;;;;;;;11.93;7.83;;;;;;;;;;4967523;28;20183;-84
2024/03/09 10:08:50;;;;;;;10.37;7.17;;;;;;;;;;4979207;28;20180;-84
2024/03/09 10:11:55;;;;;;;9.43;7.37;;;;;;;;;;4979502;28;20644;-84
2024/03/09 10:15:12;;;;;;;13.50;7.60;;;;;;;;;;4956831;29;20180;-84
2024/03/09 10:18:18;;;;;;;10.97;7.43;;;;;;;;;;4979042;28;20203;-84
2024/03/09 10:21:37;;;;;;;9.03;6.73;;;;;;;;;;4957606;29;20180;-84
2024/03/09 10:24:53;;;;;;;10.30;7.23;;;;;;;;;;4957487;29;20195;-84
2024/03/09 10:28:00;;;;;;;10.87;7.07;;;;;;;;;;4967635;28;20188;-84
2024/03/09 10:31:05;;;;;;;10.60;7.67;;;;;;;;;;4957151;29;20219;-84
2024/03/09 10:34:12;;;;;;;9.97;7.50;;;;;;;;;;4967321;28;20176;-84
2024/03/09 10:37:19;;;;;;;8.27;6.20;;;;;;;;;;4967302;28;20641;-84
2024/03/09 10:40:25;;;;;;;8.40;6.47;;;;;;;;;;4956939;29;20211;-83
2024/03/09 10:43:29;;;;;;;6.57;5.50;;;;;;;;;;4956831;29;20526;-84
2024/03/09 10:46:36;;;;;;;8.00;5.97;;;;;;;;;;4957092;29;20183;-84
2024/03/09 10:49:44;;;;;;;8.10;6.10;;;;;;;;;;4957013;29;20227;-84
2024/03/09 10:53:11;;;;;;;7.27;5.80;;;;;;;;;;4956858;29;20188;-85
2024/03/09 10:56:21;;;;;;;6.73;5.77;;;;;;;;;;4967571;28;20196;-84
2024/03/09 10:59:27;;;;;;;7.17;6.03;;;;;;;;;;4956545;29;20700;-84
2024/03/09 11:02:34;;;;;;;12.00;6.10;;;;;;;;;;4955858;29;20534;-84
2024/03/09 11:05:39;;;;;;;9.83;6.40;;;;;;;;;;4956587;29;20188;-84
2024/03/09 11:08:55;;;;;;;8.40;5.70;;;;;;;;;;4957225;29;20184;-83
2024/03/09 11:12:01;;;;;;;7.90;4.97;;;;;;;;;;4957368;29;20188;-84
2024/03/09 11:15:08;;;;;;;7.23;5.60;;;;;;;;;;4956653;29;20550;-84
2024/03/09 11:18:12;;;;;;;7.07;5.07;;;;;;;;;;4969890;28;20550;-85
2024/03/09 11:21:32;;;;;;;9.67;5.77;;;;;;;;;;4959540;29;20184;-84
2024/03/09 11:24:39;;;;;;;7.50;5.53;;;;;;;;;;4960600;29;20184;-85
2024/03/09 11:27:46;;;;;;;7.43;5.50;;;;;;;;;;4981881;28;20183;-84
2024/03/09 11:31:17;;;;;;;7.73;5.57;;;;;;;;;;4960338;29;20214;-84
2024/03/09 11:34:21;;;;;;;7.13;5.23;;;;;;;;;;4959712;29;20191;-84
2024/03/09 11:37:48;;;;;;;10.10;5.73;;;;;;;;;;4981791;28;20176;-86
2024/03/09 11:40:52;;;;;;;6.10;4.60;;;;;;;;;;4959795;29;20593;-86
2024/03/09 11:43:58;;;;;;;8.77;5.13;;;;;;;;;;4982435;28;20530;-86
2024/03/09 11:47:03;;;;;;;6.87;5.43;;;;;;;;;;4982522;28;20187;-86
2024/03/09 11:50:08;;;;;;;6.43;4.43;;;;;;;;;;4960922;29;20223;-87
2024/03/09 11:53:13;;;;;;;4.63;3.87;;;;;;;;;;4971461;28;20549;-86
2024/03/09 11:56:17;;;;;;;4.00;3.60;;;;;;;;;;4960570;29;20522;-86
2024/03/09 11:59:21;;;;;;;5.10;3.60;;;;;;;;;;4982078;28;20727;-86
2024/03/09 12:02:26;;;;;;;5.10;3.70;;;;;;;;;;4959533;29;20179;-86
2024/03/09 12:05:32;;;;;;;5.07;4.00;;;;;;;;;;4970922;28;20176;-86
2024/03/09 12:08:36;;;;;;;3.50;2.87;;;;;;;;;;4970456;28;20180;-85
2024/03/09 12:11:45;;;;;;;4.20;3.20;;;;;;;;;;4960003;29;20180;-85
2024/03/09 12:14:50;;;;;;;3.87;3.27;;;;;;;;;;4959377;29;20179;-86
2024/03/09 12:17:55;;;;;;;3.43;2.70;;;;;;;;;;4970173;28;20183;-86
2024/03/09 12:20:59;;;;;;;7.20;3.40;;;;;;;;;;4960099;29;20226;-86
2024/03/09 12:24:06;;;;;;;3.30;2.87;;;;;;;;;;4981556;28;20175;-85
2024/03/09 12:27:10;;;;;;;3.47;2.60;;;;;;;;;;4959456;29;20180;-85
2024/03/09 12:30:15;;;;;;;3.90;3.00;;;;;;;;;;4959221;29;20215;-85
2024/03/09 12:33:21;;;;;;;4.53;2.83;;;;;;;;;;4969846;28;20183;-85
2024/03/09 12:36:25;;;;;;;5.30;2.93;;;;;;;;;;4958777;29;20526;-86
2024/03/09 12:39:29;;;;;;;2.67;2.20;;;;;;;;;;4969315;28;20231;-86
2024/03/09 12:42:33;;;;;;;3.17;2.30;;;;;;;;;;4969365;28;20184;-86
2024/03/09 12:45:41;;;;;;;3.17;2.40;;;;;;;;;;4959095;29;20184;-85
2024/03/09 12:48:46;;;;;;;2.63;2.40;;;;;;;;;;4957928;29;20180;-87
2024/03/09 12:51:50;;;;;;;5.30;2.50;;;;;;;;;;4980390;28;20184;-86
2024/03/09 12:54:55;;;;;;;2.67;2.30;;;;;;;;;;4980533;28;20191;-84
2024/03/09 12:58:00;;;;;;;8.83;2.43;;;;;;;;;;4969972;28;20538;-84
2024/03/09 13:01:05;;;;;;;2.30;1.80;;;;;;;;;;4958906;29;20216;-85
2024/03/09 13:04:11;;;;;;;2.50;2.23;;;;;;;;;;4959229;29;20184;-85
2024/03/09 13:07:15;;;;;;;4.10;1.70;;;;;;;;;;4980674;28;20184;-83
2024/03/09 13:10:24;;;;;;;7.03;1.83;;;;;;;;;;4958949;29;20561;-84
2024/03/09 13:13:28;;;;;;;2.33;2.03;;;;;;;;;;4958550;29;20614;-84
2024/03/09 13:16:32;;;;;;;2.50;1.70;;;;;;;;;;4958848;29;20187;-84
2024/03/09 13:19:36;;;;;;;3.73;2.50;;;;;;;;;;4959040;29;20234;-84
2024/03/09 13:22:40;;;;;;;3.50;2.30;;;;;;;;;;4959211;29;20176;-82
2024/03/09 13:25:46;;;;;;;2.23;1.90;;;;;;;;;;4959604;29;20183;-83
2024/03/09 13:28:50;;;;;;;2.53;2.00;;;;;;;;;;4958322;29;20180;-83
2024/03/09 13:31:55;;;;;;;2.40;1.93;;;;;;;;;;4969608;28;20648;-84
2024/03/09 13:35:06;;;;;;;3.20;2.03;;;;;;;;;;4968917;28;20187;-84
2024/03/09 13:38:10;;;;;;;2.70;1.73;;;;;;;;;;4968878;28;20175;-84
2024/03/09 13:41:16;;;;;;;4.47;1.83;;;;;;;;;;4957901;29;20188;-85
2024/03/09 13:44:23;;;;;;;2.63;2.03;;;;;;;;;;4958507;29;20179;-83
2024/03/09 13:47:28;;;;;;;3.83;2.30;;;;;;;;;;4959847;29;20183;-84
2024/03/09 13:50:32;;;;;;;2.47;1.90;;;;;;;;;;4958549;29;20222;-83
2024/03/09 13:53:42;;;;;;;3.07;2.00;;;;;;;;;;4970073;28;20179;-83
2024/03/09 13:56:46;;;;;;;2.70;1.97;;;;;;;;;;4959798;29;20649;-83
2024/03/09 13:59:52;;;;;;;3.27;2.17;;;;;;;;;;4980102;28;20235;-83
2024/03/09 14:02:58;;;;;;;2.53;1.80;;;;;;;;;;4959288;29;20541;-83
2024/03/09 14:06:05;;;;;;;2.47;1.83;;;;;;;;;;4958457;29;20184;-84
2024/03/09 14:09:10;;;;;;;5.40;2.17;;;;;;;;;;4980607;28;20208;-84
2024/03/09 14:12:19;;;;;;;3.83;2.57;;;;;;;;;;4959092;29;20184;-84
2024/03/09 14:15:24;;;;;;;5.40;2.00;;;;;;;;;;4958523;29;20191;-83
2024/03/09 14:18:28;;;;;;;3.40;1.90;;;;;;;;;;4969109;28;20526;-84
2024/03/09 14:21:32;;;;;;;2.70;1.33;;;;;;;;;;4980625;28;20191;-83
2024/03/09 14:24:37;;;;;;;2.80;1.60;;;;;;;;;;4969634;28;20183;-84
2024/03/09 14:27:41;;;;;;;1.83;1.40;;;;;;;;;;4980475;28;20187;-84
2024/03/09 14:30:45;;;;;;;1.50;1.30;;;;;;;;;;4967734;28;20219;-84
2024/03/09 14:33:49;;;;;;;1.57;1.47;;;;;;;;;;4968262;28;20188;-85
2024/03/09 14:37:00;;;;;;;2.00;1.53;;;;;;;;;;4957249;29;20187;-84
2024/03/09 14:40:11;;;;;;;3.13;1.60;;;;;;;;;;4978600;28;20231;-84
2024/03/09 14:43:16;;;;;;;4.10;1.93;;;;;;;;;;4957753;29;20184;-84
2024/03/09 14:46:20;;;;;;;2.10;1.70;;;;;;;;;;4978843;28;20192;-84
2024/03/09 14:49:24;;;;;;;3.50;2.03;;;;;;;;;;4979709;28;20248;-84
2024/03/09 14:52:30;;;;;;;3.23;2.53;;;;;;;;;;4957755;29;20183;-84
2024/03/09 14:55:34;;;;;;;4.10;2.00;;;;;;;;;;4967494;28;20188;-84
2024/03/09 14:58:43;;;;;;;3.73;2.27;;;;;;;;;;4956989;29;20184;-83
2024/03/09 15:01:47;;;;;;;3.80;2.00;;;;;;;;;;4956386;29;20180;-84
2024/03/09 15:04:52;;;;;;;4.07;2.20;;;;;;;;;;4957173;29;20179;-84
2024/03/09 15:07:56;;;;;;;2.20;1.67;;;;;;;;;;4957186;29;20183;-83
2024/03/09 15:11:01;;;;;;;3.33;1.83;;;;;;;;;;4979103;28;20692;-84
2024/03/09 15:14:05;;;;;;;2.77;2.07;;;;;;;;;;4968470;28;20653;-82
2024/03/09 15:17:15;;;;;;;6.73;2.27;;;;;;;;;;4958215;28;20179;-82
2024/03/09 15:20:25;;;;;;;2.87;2.30;;;;;;;;;;4957558;29;20223;-82
2024/03/09 15:23:31;;;;;;;3.87;2.10;;;;;;;;;;4968272;28;20184;-84
2024/03/09 15:26:40;;;;;;;2.40;2.10;;;;;;;;;;4968001;28;20188;-84
2024/03/09 15:29:44;;;;;;;6.23;2.03;;;;;;;;;;4956951;29;20215;-85
2024/03/09 15:32:52;;;;;;;2.83;2.07;;;;;;;;;;4967561;28;20199;-84
2024/03/09 15:35:56;;;;;;;8.17;2.40;;;;;;;;;;4957189;29;20183;-85
2024/03/09 15:39:00;;;;;;;3.93;2.70;;;;;;;;;;4967969;28;20187;-85
2024/03/09 15:42:05;;;;;;;3.23;2.43;;;;;;;;;;4967211;28;20187;-85
2024/03/09 15:45:09;;;;;;;4.60;2.80;;;;;;;;;;4967132;28;20188;-85
2024/03/09 15:48:13;;;;;;;4.27;2.70;;;;;;;;;;4967213;28;20191;-85
2024/03/09 15:51:18;;;;;;;3.50;2.40;;;;;;;;;;4968110;28;20184;-84
2024/03/09 15:54:24;;;;;;;2.97;2.07;;;;;;;;;;4967757;28;20180;-83
2024/03/09 15:57:30;;;;;;;7.10;2.37;;;;;;;;;;4957781;29;20179;-83
2024/03/09 16:00:36;;;;;;;9.33;4.50;;;;;;;;;;4957090;29;20228;-83
2024/03/09 16:03:43;;;;;;;2.87;2.10;;;;;;;;;;4968735;28;20183;-83
2024/03/09 16:06:47;;;;;;;2.83;2.03;;;;;;;;;;4971054;28;20183;-83
2024/03/09 16:09:51;;;;;;;4.70;2.57;;;;;;;;;;4960711;29;20211;-83
2024/03/09 16:12:57;;;;;;;4.07;2.10;;;;;;;;;;4948942;29;20180;-83
2024/03/09 16:16:06;;;;;;;4.20;2.30;;;;;;;;;;4961332;29;20184;-83
2024/03/09 16:19:10;;;;;;;7.37;4.57;;;;;;;;;;4970933;28;20215;-83
2024/03/09 16:22:15;;;;;;;6.43;4.17;;;;;;;;;;4972008;28;20521;-83
2024/03/09 16:25:20;;;;;;;11.37;6.77;;;;;;;;;;4962982;29;20633;-83
2024/03/09 16:28:31;;;;;;;7.57;4.13;;;;;;;;;;4960591;29;20192;-83
2024/03/09 16:31:36;;;;;;;4.83;2.27;;;;;;;;;;4970100;28;20176;-82
2024/03/09 16:34:41;;;;;;;3.10;2.10;;;;;;;;;;4960814;29;20191;-83
2024/03/09 16:37:45;;;;;;;2.60;2.00;;;;;;;;;;4971720;28;20183;-83
2024/03/09 16:40:55;;;;;;;3.90;2.00;;;;;;;;;;4959494;29;20227;-83
2024/03/09 16:43:59;;;;;;;2.97;2.10;;;;;;;;;;4958723;28;20522;-84
2024/03/09 16:47:03;;;;;;;4.77;2.20;;;;;;;;;;4959907;29;20191;-83
2024/03/09 16:50:17;;;;;;;5.40;1.93;;;;;;;;;;4959655;29;20219;-83
2024/03/09 16:53:25;;;;;;;5.97;2.50;;;;;;;;;;4969903;28;20180;-83
2024/03/09 16:56:30;;;;;;;4.33;2.47;;;;;;;;;;4970287;28;20196;-83
2024/03/09 16:59:35;;;;;;;7.17;2.83;;;;;;;;;;4958848;29;20223;-84
2024/03/09 17:02:40;;;;;;;3.33;1.97;;;;;;;;;;4957317;29;20179;-84
2024/03/09 17:05:45;;;;;;;4.33;2.20;;;;;;;;;;4957364;29;20183;-84
2024/03/09 17:08:49;;;;;;;10.33;2.80;;;;;;;;;;4968435;28;20184;-84
2024/03/09 17:11:54;;;;;;;4.93;2.80;;;;;;;;;;4968089;28;20183;-84
2024/03/09 17:15:00;;;;;;;3.57;2.57;;;;;;;;;;4955779;28;20187;-84
2024/03/09 17:18:05;;;;;;;3.90;2.63;;;;;;;;;;4968330;28;20179;-84
2024/03/09 17:21:10;;;;;;;4.07;2.57;;;;;;;;;;4967699;28;20227;-84
2024/03/09 17:24:15;;;;;;;3.77;2.30;;;;;;;;;;4957184;29;20192;-84
2024/03/09 17:27:19;;;;;;;3.07;2.43;;;;;;;;;;4957101;29;20184;-84
2024/03/09 17:30:25;;;;;;;3.47;2.40;;;;;;;;;;4957130;29;20223;-84
2024/03/09 17:33:30;;;;;;;3.60;2.47;;;;;;;;;;4957167;29;20184;-83
2024/03/09 17:36:35;;;;;;;5.13;2.50;;;;;;;;;;4968380;28;20188;-84
2024/03/09 17:39:45;;;;;;;3.83;2.80;;;;;;;;;;4956950;28;20565;-84
2024/03/09 17:42:54;;;;;;;5.20;3.10;;;;;;;;;;4967932;28;20184;-84
2024/03/09 17:45:59;;;;;;;3.83;2.90;;;;;;;;;;4967302;28;20210;-84
2024/03/09 17:49:03;;;;;;;5.33;3.13;;;;;;;;;;4967507;28;20203;-84
2024/03/09 17:52:08;;;;;;;3.93;3.10;;;;;;;;;;4956472;29;20175;-84
2024/03/09 17:55:18;;;;;;;3.77;2.97;;;;;;;;;;4967805;28;20187;-85
2024/03/09 17:58:22;;;;;;;3.77;2.77;;;;;;;;;;4956472;29;20179;-85
2024/03/09 18:01:27;;;;;;;5.20;3.07;;;;;;;;;;4956283;29;20207;-85
2024/03/09 18:04:33;;;;;;;5.17;3.20;;;;;;;;;;4967505;28;20641;-85
2024/03/09 18:07:38;;;;;;;3.63;2.50;;;;;;;;;;4945613;29;20180;-85
2024/03/09 18:10:43;;;;;;;6.27;2.63;;;;;;;;;;4945332;29;20215;-85
2024/03/09 18:13:48;;;;;;;3.70;2.80;;;;;;;;;;4956048;29;20183;-84
2024/03/09 18:16:53;;;;;;;6.13;3.77;;;;;;;;;;4955802;29;20183;-84
2024/03/09 18:19:57;;;;;;;4.47;3.13;;;;;;;;;;4966699;28;20219;-85
2024/03/09 18:23:03;;;;;;;4.67;3.67;;;;;;;;;;4956867;29;20180;-85
2024/03/09 18:26:08;;;;;;;5.13;3.27;;;;;;;;;;4955571;28;20188;-84
2024/03/09 18:29:16;;;;;;;4.40;2.87;;;;;;;;;;4957409;29;20716;-84
2024/03/09 18:32:20;;;;;;;4.27;3.00;;;;;;;;;;4967694;28;20180;-84
2024/03/09 18:35:25;;;;;;;5.17;3.07;;;;;;;;;;4956588;29;20187;-84
2024/03/09 18:38:31;;;;;;;4.20;3.03;;;;;;;;;;4967023;28;20187;-84